sensor_id;sensor_type;location;lat;lon;timestamp;P1;P2;P0
52290;PMS5003;39663;45.432;28.050;2023-02-27T00:00:29;24.0;24.0;
52290;PMS5003;39663;45.432;28.050;2023-02-27T00:01:01;18.0;18.0;
52290;PMS5003;39663;45.432;28.050;2023-02-27T00:01:33;21.0;21.0;
52290;PMS5003;39663;45.432;28.050;2023-02-27T00:02:04;21.0;19.0;
52290;PMS5003;39663;45.432;28.050;2023-02-27T00:02:36;22.0;22.0;
52290;PMS5003;39663;45.432;28.050;2023-02-27T00:03:07;21.0;16.0;
52290;PMS5003;39663;45.432;28.050;2023-02-27T00:03:39;17.0;16.0;
52290;PMS5003;39663;45.432;28.050;2023-02-27T00:04:10;29.0;22.0;
52290;PMS5003;39663;45.432;28.050;2023-02-27T00:04:42;20.0;18.0;
52290;PMS5003;39663;45.432;28.050;2023-02-27T00:05:14;22.0;22.0;
52290;PMS5003;39663;45.432;28.050;2023-02-27T00:05:46;18.0;18.0;
52290;PMS5003;39663;45.432;28.050;2023-02-27T00:06:18;15.0;13.0;
52290;PMS5003;39663;45.432;28.050;2023-02-27T00:06:50;20.0;19.0;
52290;PMS5003;39663;45.432;28.050;2023-02-27T00:07:21;14.0;14.0;
52290;PMS5003;39663;45.432;28.050;2023-02-27T00:07:53;16.0;15.0;
52290;PMS5003;39663;45.432;28.050;2023-02-27T00:08:24;18.0;15.0;
52290;PMS5003;39663;45.432;28.050;2023-02-27T00:08:56;21.0;19.0;
52290;PMS5003;39663;45.432;28.050;2023-02-27T00:09:27;17.0;14.0;
52290;PMS5003;39663;45.432;28.050;2023-02-27T00:09:59;26.0;22.0;
52290;PMS5003;39663;45.432;28.050;2023-02-27T00:10:30;17.0;16.0;
52290;PMS5003;39663;45.432;28.050;2023-02-27T00:11:02;16.0;16.0;
52290;PMS5003;39663;45.432;28.050;2023-02-27T00:11:34;17.0;15.0;
52290;PMS5003;39663;45.432;28.050;2023-02-27T00:12:06;15.0;15.0;
52290;PMS5003;39663;45.432;28.050;2023-02-27T00:12:38;16.0;16.0;
52290;PMS5003;39663;45.432;28.050;2023-02-27T00:13:09;20.0;19.0;
52290;PMS5003;39663;45.432;28.050;2023-02-27T00:13:41;17.0;17.0;
52290;PMS5003;39663;45.432;28.050;2023-02-27T00:14:13;19.0;18.0;
52290;PMS5003;39663;45.432;28.050;2023-02-27T00:14:45;18.0;17.0;
52290;PMS5003;39663;45.432;28.050;2023-02-27T00:15:17;18.0;17.0;
52290;PMS5003;39663;45.432;28.050;2023-02-27T00:15:49;26.0;22.0;
52290;PMS5003;39663;45.432;28.050;2023-02-27T00:16:21;20.0;20.0;
52290;PMS5003;39663;45.432;28.050;2023-02-27T00:16:52;15.0;15.0;
52290;PMS5003;39663;45.432;28.050;2023-02-27T00:17:24;15.0;13.0;
52290;PMS5003;39663;45.432;28.050;2023-02-27T00:17:56;13.0;13.0;
52290;PMS5003;39663;45.432;28.050;2023-02-27T00:18:27;17.0;16.0;
52290;PMS5003;39663;45.432;28.050;2023-02-27T00:18:59;14.0;14.0;
52290;PMS5003;39663;45.432;28.050;2023-02-27T00:19:31;17.0;16.0;
52290;PMS5003;39663;45.432;28.050;2023-02-27T00:20:03;17.0;14.0;
52290;PMS5003;39663;45.432;28.050;2023-02-27T00:20:35;16.0;13.0;
52290;PMS5003;39663;45.432;28.050;2023-02-27T00:21:07;16.0;15.0;
52290;PMS5003;39663;45.432;28.050;2023-02-27T00:21:39;14.0;14.0;
52290;PMS5003;39663;45.432;28.050;2023-02-27T00:22:10;16.0;15.0;
52290;PMS5003;39663;45.432;28.050;2023-02-27T00:22:42;20.0;18.0;
52290;PMS5003;39663;45.432;28.050;2023-02-27T00:23:15;15.0;14.0;
52290;PMS5003;39663;45.432;28.050;2023-02-27T00:23:46;17.0;17.0;
52290;PMS5003;39663;45.432;28.050;2023-02-27T00:24:18;16.0;14.0;
52290;PMS5003;39663;45.432;28.050;2023-02-27T00:24:50;16.0;16.0;
52290;PMS5003;39663;45.432;28.050;2023-02-27T00:25:21;18.0;17.0;
52290;PMS5003;39663;45.432;28.050;2023-02-27T00:25:53;16.0;12.0;
52290;PMS5003;39663;45.432;28.050;2023-02-27T00:26:26;15.0;14.0;
52290;PMS5003;39663;45.432;28.050;2023-02-27T00:26:57;15.0;15.0;
52290;PMS5003;39663;45.432;28.050;2023-02-27T00:27:29;14.0;14.0;
52290;PMS5003;39663;45.432;28.050;2023-02-27T00:28:00;18.0;16.0;
52290;PMS5003;39663;45.432;28.050;2023-02-27T00:28:32;19.0;18.0;
52290;PMS5003;39663;45.432;28.050;2023-02-27T00:29:04;15.0;14.0;
52290;PMS5003;39663;45.432;28.050;2023-02-27T00:29:36;18.0;17.0;
52290;PMS5003;39663;45.432;28.050;2023-02-27T00:30:08;12.0;12.0;
52290;PMS5003;39663;45.432;28.050;2023-02-27T00:30:42;11.0;11.0;
52290;PMS5003;39663;45.432;28.050;2023-02-27T00:31:14;13.0;12.0;
52290;PMS5003;39663;45.432;28.050;2023-02-27T00:31:45;20.0;18.0;
52290;PMS5003;39663;45.432;28.050;2023-02-27T00:32:17;14.0;12.0;
52290;PMS5003;39663;45.432;28.050;2023-02-27T00:32:48;20.0;17.0;
52290;PMS5003;39663;45.432;28.050;2023-02-27T00:33:20;22.0;19.0;
52290;PMS5003;39663;45.432;28.050;2023-02-27T00:33:51;18.0;17.0;
52290;PMS5003;39663;45.432;28.050;2023-02-27T00:34:23;18.0;15.0;
52290;PMS5003;39663;45.432;28.050;2023-02-27T00:34:55;13.0;13.0;
52290;PMS5003;39663;45.432;28.050;2023-02-27T00:35:26;17.0;14.0;
52290;PMS5003;39663;45.432;28.050;2023-02-27T00:35:58;17.0;16.0;
52290;PMS5003;39663;45.432;28.050;2023-02-27T00:36:31;17.0;17.0;
52290;PMS5003;39663;45.432;28.050;2023-02-27T00:37:02;17.0;16.0;
52290;PMS5003;39663;45.432;28.050;2023-02-27T00:37:34;22.0;19.0;
52290;PMS5003;39663;45.432;28.050;2023-02-27T00:38:06;18.0;14.0;
52290;PMS5003;39663;45.432;28.050;2023-02-27T00:38:38;13.0;13.0;
52290;PMS5003;39663;45.432;28.050;2023-02-27T00:39:09;12.0;12.0;
52290;PMS5003;39663;45.432;28.050;2023-02-27T00:39:41;16.0;15.0;
52290;PMS5003;39663;45.432;28.050;2023-02-27T00:40:13;21.0;20.0;
52290;PMS5003;39663;45.432;28.050;2023-02-27T00:40:45;13.0;11.0;
52290;PMS5003;39663;45.432;28.050;2023-02-27T00:41:16;14.0;14.0;
52290;PMS5003;39663;45.432;28.050;2023-02-27T00:41:48;14.0;13.0;
52290;PMS5003;39663;45.432;28.050;2023-02-27T00:42:19;11.0;11.0;
52290;PMS5003;39663;45.432;28.050;2023-02-27T00:42:51;17.0;16.0;
52290;PMS5003;39663;45.432;28.050;2023-02-27T00:43:23;16.0;13.0;
52290;PMS5003;39663;45.432;28.050;2023-02-27T00:43:55;14.0;14.0;
52290;PMS5003;39663;45.432;28.050;2023-02-27T00:44:26;12.0;12.0;
52290;PMS5003;39663;45.432;28.050;2023-02-27T00:44:58;13.0;10.0;
52290;PMS5003;39663;45.432;28.050;2023-02-27T00:45:30;17.0;15.0;
52290;PMS5003;39663;45.432;28.050;2023-02-27T00:46:01;19.0;17.0;
52290;PMS5003;39663;45.432;28.050;2023-02-27T00:46:33;14.0;13.0;
52290;PMS5003;39663;45.432;28.050;2023-02-27T00:47:05;11.0;9.0;
52290;PMS5003;39663;45.432;28.050;2023-02-27T00:47:37;16.0;14.0;
52290;PMS5003;39663;45.432;28.050;2023-02-27T00:48:10;16.0;13.0;
52290;PMS5003;39663;45.432;28.050;2023-02-27T00:48:41;12.0;11.0;
52290;PMS5003;39663;45.432;28.050;2023-02-27T00:49:13;12.0;12.0;
52290;PMS5003;39663;45.432;28.050;2023-02-27T00:49:45;11.0;11.0;
52290;PMS5003;39663;45.432;28.050;2023-02-27T00:50:16;15.0;11.0;
52290;PMS5003;39663;45.432;28.050;2023-02-27T00:50:48;12.0;10.0;
52290;PMS5003;39663;45.432;28.050;2023-02-27T00:51:20;10.0;10.0;
52290;PMS5003;39663;45.432;28.050;2023-02-27T00:51:52;16.0;14.0;
52290;PMS5003;39663;45.432;28.050;2023-02-27T00:52:24;17.0;12.0;
52290;PMS5003;39663;45.432;28.050;2023-02-27T00:52:56;11.0;10.0;
52290;PMS5003;39663;45.432;28.050;2023-02-27T00:53:27;13.0;13.0;
52290;PMS5003;39663;45.432;28.050;2023-02-27T00:53:59;12.0;12.0;
52290;PMS5003;39663;45.432;28.050;2023-02-27T00:54:31;16.0;13.0;
52290;PMS5003;39663;45.432;28.050;2023-02-27T00:55:03;12.0;12.0;
52290;PMS5003;39663;45.432;28.050;2023-02-27T00:55:36;9.0;9.0;
52290;PMS5003;39663;45.432;28.050;2023-02-27T00:56:08;11.0;11.0;
52290;PMS5003;39663;45.432;28.050;2023-02-27T00:56:40;16.0;14.0;
52290;PMS5003;39663;45.432;28.050;2023-02-27T00:57:12;15.0;15.0;
52290;PMS5003;39663;45.432;28.050;2023-02-27T00:57:44;11.0;11.0;
52290;PMS5003;39663;45.432;28.050;2023-02-27T00:58:15;16.0;16.0;
52290;PMS5003;39663;45.432;28.050;2023-02-27T00:58:47;12.0;11.0;
52290;PMS5003;39663;45.432;28.050;2023-02-27T00:59:19;9.0;8.0;
52290;PMS5003;39663;45.432;28.050;2023-02-27T00:59:51;10.0;10.0;
52290;PMS5003;39663;45.432;28.050;2023-02-27T01:00:22;14.0;12.0;
52290;PMS5003;39663;45.432;28.050;2023-02-27T01:00:54;10.0;8.0;
52290;PMS5003;39663;45.432;28.050;2023-02-27T01:01:28;13.0;13.0;
52290;PMS5003;39663;45.432;28.050;2023-02-27T01:02:00;10.0;9.0;
52290;PMS5003;39663;45.432;28.050;2023-02-27T01:02:31;12.0;12.0;
52290;PMS5003;39663;45.432;28.050;2023-02-27T01:03:03;10.0;10.0;
52290;PMS5003;39663;45.432;28.050;2023-02-27T01:03:36;10.0;10.0;
52290;PMS5003;39663;45.432;28.050;2023-02-27T01:04:07;10.0;9.0;
52290;PMS5003;39663;45.432;28.050;2023-02-27T01:04:40;10.0;9.0;
52290;PMS5003;39663;45.432;28.050;2023-02-27T01:05:12;12.0;10.0;
52290;PMS5003;39663;45.432;28.050;2023-02-27T01:05:44;11.0;9.0;
52290;PMS5003;39663;45.432;28.050;2023-02-27T01:06:15;17.0;15.0;
52290;PMS5003;39663;45.432;28.050;2023-02-27T01:06:47;14.0;13.0;
52290;PMS5003;39663;45.432;28.050;2023-02-27T01:07:18;10.0;9.0;
52290;PMS5003;39663;45.432;28.050;2023-02-27T01:07:50;12.0;12.0;
52290;PMS5003;39663;45.432;28.050;2023-02-27T01:08:21;9.0;9.0;
52290;PMS5003;39663;45.432;28.050;2023-02-27T01:08:53;12.0;11.0;
52290;PMS5003;39663;45.432;28.050;2023-02-27T01:09:25;13.0;10.0;
52290;PMS5003;39663;45.432;28.050;2023-02-27T01:09:57;8.0;8.0;
52290;PMS5003;39663;45.432;28.050;2023-02-27T01:10:29;11.0;11.0;
52290;PMS5003;39663;45.432;28.050;2023-02-27T01:11:00;11.0;11.0;
52290;PMS5003;39663;45.432;28.050;2023-02-27T01:11:32;10.0;10.0;
52290;PMS5003;39663;45.432;28.050;2023-02-27T01:12:04;10.0;9.0;
52290;PMS5003;39663;45.432;28.050;2023-02-27T01:12:36;9.0;9.0;
52290;PMS5003;39663;45.432;28.050;2023-02-27T01:13:07;10.0;10.0;
52290;PMS5003;39663;45.432;28.050;2023-02-27T01:13:39;6.0;6.0;
52290;PMS5003;39663;45.432;28.050;2023-02-27T01:14:11;9.0;9.0;
52290;PMS5003;39663;45.432;28.050;2023-02-27T01:14:43;12.0;10.0;
52290;PMS5003;39663;45.432;28.050;2023-02-27T01:15:14;8.0;8.0;
52290;PMS5003;39663;45.432;28.050;2023-02-27T01:15:46;17.0;15.0;
52290;PMS5003;39663;45.432;28.050;2023-02-27T01:16:17;9.0;9.0;
52290;PMS5003;39663;45.432;28.050;2023-02-27T01:16:49;11.0;11.0;
52290;PMS5003;39663;45.432;28.050;2023-02-27T01:17:20;13.0;10.0;
52290;PMS5003;39663;45.432;28.050;2023-02-27T01:17:52;12.0;8.0;
52290;PMS5003;39663;45.432;28.050;2023-02-27T01:18:23;12.0;11.0;
52290;PMS5003;39663;45.432;28.050;2023-02-27T01:18:55;11.0;10.0;
52290;PMS5003;39663;45.432;28.050;2023-02-27T01:19:27;16.0;16.0;
52290;PMS5003;39663;45.432;28.050;2023-02-27T01:19:59;10.0;10.0;
52290;PMS5003;39663;45.432;28.050;2023-02-27T01:20:30;12.0;11.0;
52290;PMS5003;39663;45.432;28.050;2023-02-27T01:21:02;10.0;10.0;
52290;PMS5003;39663;45.432;28.050;2023-02-27T01:21:35;12.0;11.0;
52290;PMS5003;39663;45.432;28.050;2023-02-27T01:22:06;11.0;11.0;
52290;PMS5003;39663;45.432;28.050;2023-02-27T01:22:38;10.0;10.0;
52290;PMS5003;39663;45.432;28.050;2023-02-27T01:23:11;11.0;11.0;
52290;PMS5003;39663;45.432;28.050;2023-02-27T01:23:43;10.0;8.0;
52290;PMS5003;39663;45.432;28.050;2023-02-27T01:24:16;11.0;10.0;
52290;PMS5003;39663;45.432;28.050;2023-02-27T01:24:48;12.0;12.0;
52290;PMS5003;39663;45.432;28.050;2023-02-27T01:25:20;11.0;10.0;
52290;PMS5003;39663;45.432;28.050;2023-02-27T01:25:51;11.0;11.0;
52290;PMS5003;39663;45.432;28.050;2023-02-27T01:26:23;12.0;11.0;
52290;PMS5003;39663;45.432;28.050;2023-02-27T01:26:55;11.0;10.0;
52290;PMS5003;39663;45.432;28.050;2023-02-27T01:27:26;11.0;11.0;
52290;PMS5003;39663;45.432;28.050;2023-02-27T01:27:58;10.0;10.0;
52290;PMS5003;39663;45.432;28.050;2023-02-27T01:28:30;10.0;10.0;
52290;PMS5003;39663;45.432;28.050;2023-02-27T01:29:01;10.0;9.0;
52290;PMS5003;39663;45.432;28.050;2023-02-27T01:29:33;12.0;11.0;
52290;PMS5003;39663;45.432;28.050;2023-02-27T01:30:05;11.0;8.0;
52290;PMS5003;39663;45.432;28.050;2023-02-27T01:30:37;12.0;8.0;
52290;PMS5003;39663;45.432;28.050;2023-02-27T01:31:09;14.0;11.0;
52290;PMS5003;39663;45.432;28.050;2023-02-27T01:31:41;10.0;8.0;
52290;PMS5003;39663;45.432;28.050;2023-02-27T01:32:13;10.0;9.0;
52290;PMS5003;39663;45.432;28.050;2023-02-27T01:32:44;11.0;9.0;
52290;PMS5003;39663;45.432;28.050;2023-02-27T01:33:15;11.0;9.0;
52290;PMS5003;39663;45.432;28.050;2023-02-27T01:33:47;10.0;10.0;
52290;PMS5003;39663;45.432;28.050;2023-02-27T01:34:19;10.0;10.0;
52290;PMS5003;39663;45.432;28.050;2023-02-27T01:34:50;9.0;9.0;
52290;PMS5003;39663;45.432;28.050;2023-02-27T01:35:22;10.0;10.0;
52290;PMS5003;39663;45.432;28.050;2023-02-27T01:35:53;10.0;9.0;
52290;PMS5003;39663;45.432;28.050;2023-02-27T01:36:25;9.0;9.0;
52290;PMS5003;39663;45.432;28.050;2023-02-27T01:36:56;11.0;10.0;
52290;PMS5003;39663;45.432;28.050;2023-02-27T01:37:28;9.0;9.0;
52290;PMS5003;39663;45.432;28.050;2023-02-27T01:38:00;12.0;11.0;
52290;PMS5003;39663;45.432;28.050;2023-02-27T01:38:32;12.0;12.0;
52290;PMS5003;39663;45.432;28.050;2023-02-27T01:39:03;11.0;10.0;
52290;PMS5003;39663;45.432;28.050;2023-02-27T01:39:35;9.0;9.0;
52290;PMS5003;39663;45.432;28.050;2023-02-27T01:40:08;11.0;10.0;
52290;PMS5003;39663;45.432;28.050;2023-02-27T01:40:41;10.0;9.0;
52290;PMS5003;39663;45.432;28.050;2023-02-27T01:41:13;9.0;9.0;
52290;PMS5003;39663;45.432;28.050;2023-02-27T01:41:45;11.0;11.0;
52290;PMS5003;39663;45.432;28.050;2023-02-27T01:42:18;8.0;8.0;
52290;PMS5003;39663;45.432;28.050;2023-02-27T01:42:52;8.0;8.0;
52290;PMS5003;39663;45.432;28.050;2023-02-27T01:43:24;9.0;9.0;
52290;PMS5003;39663;45.432;28.050;2023-02-27T01:43:57;11.0;8.0;
52290;PMS5003;39663;45.432;28.050;2023-02-27T01:44:30;8.0;8.0;
52290;PMS5003;39663;45.432;28.050;2023-02-27T01:45:32;11.0;11.0;
52290;PMS5003;39663;45.432;28.050;2023-02-27T01:46:04;13.0;11.0;
52290;PMS5003;39663;45.432;28.050;2023-02-27T01:46:36;11.0;11.0;
52290;PMS5003;39663;45.432;28.050;2023-02-27T01:47:08;9.0;9.0;
52290;PMS5003;39663;45.432;28.050;2023-02-27T01:47:40;10.0;9.0;
52290;PMS5003;39663;45.432;28.050;2023-02-27T01:48:15;9.0;9.0;
52290;PMS5003;39663;45.432;28.050;2023-02-27T01:48:50;11.0;10.0;
52290;PMS5003;39663;45.432;28.050;2023-02-27T01:49:26;13.0;10.0;
52290;PMS5003;39663;45.432;28.050;2023-02-27T01:50:01;12.0;11.0;
52290;PMS5003;39663;45.432;28.050;2023-02-27T01:50:34;8.0;7.0;
52290;PMS5003;39663;45.432;28.050;2023-02-27T01:51:11;15.0;12.0;
52290;PMS5003;39663;45.432;28.050;2023-02-27T01:51:48;12.0;11.0;
52290;PMS5003;39663;45.432;28.050;2023-02-27T01:52:22;9.0;9.0;
52290;PMS5003;39663;45.432;28.050;2023-02-27T01:52:55;12.0;8.0;
52290;PMS5003;39663;45.432;28.050;2023-02-27T01:53:30;12.0;10.0;
52290;PMS5003;39663;45.432;28.050;2023-02-27T01:54:04;9.0;9.0;
52290;PMS5003;39663;45.432;28.050;2023-02-27T01:54:39;11.0;9.0;
52290;PMS5003;39663;45.432;28.050;2023-02-27T01:55:12;12.0;12.0;
52290;PMS5003;39663;45.432;28.050;2023-02-27T01:55:45;16.0;12.0;
52290;PMS5003;39663;45.432;28.050;2023-02-27T01:56:19;7.0;7.0;
52290;PMS5003;39663;45.432;28.050;2023-02-27T01:56:53;10.0;9.0;
52290;PMS5003;39663;45.432;28.050;2023-02-27T01:57:25;9.0;8.0;
52290;PMS5003;39663;45.432;28.050;2023-02-27T01:57:58;8.0;7.0;
52290;PMS5003;39663;45.432;28.050;2023-02-27T01:58:30;13.0;10.0;
52290;PMS5003;39663;45.432;28.050;2023-02-27T01:59:09;13.0;10.0;
52290;PMS5003;39663;45.432;28.050;2023-02-27T01:59:42;11.0;9.0;
52290;PMS5003;39663;45.432;28.050;2023-02-27T02:00:20;10.0;8.0;
52290;PMS5003;39663;45.432;28.050;2023-02-27T02:00:52;9.0;9.0;
52290;PMS5003;39663;45.432;28.050;2023-02-27T02:01:25;11.0;9.0;
52290;PMS5003;39663;45.432;28.050;2023-02-27T02:01:57;9.0;9.0;
52290;PMS5003;39663;45.432;28.050;2023-02-27T02:02:32;7.0;6.0;
52290;PMS5003;39663;45.432;28.050;2023-02-27T02:03:10;9.0;9.0;
52290;PMS5003;39663;45.432;28.050;2023-02-27T02:03:49;8.0;8.0;
52290;PMS5003;39663;45.432;28.050;2023-02-27T02:04:27;6.0;6.0;
52290;PMS5003;39663;45.432;28.050;2023-02-27T02:05:00;10.0;9.0;
52290;PMS5003;39663;45.432;28.050;2023-02-27T02:05:32;7.0;7.0;
52290;PMS5003;39663;45.432;28.050;2023-02-27T02:06:04;11.0;9.0;
52290;PMS5003;39663;45.432;28.050;2023-02-27T02:06:38;10.0;8.0;
52290;PMS5003;39663;45.432;28.050;2023-02-27T02:07:14;11.0;11.0;
52290;PMS5003;39663;45.432;28.050;2023-02-27T02:07:48;8.0;8.0;
52290;PMS5003;39663;45.432;28.050;2023-02-27T02:08:22;12.0;9.0;
52290;PMS5003;39663;45.432;28.050;2023-02-27T02:08:56;9.0;9.0;
52290;PMS5003;39663;45.432;28.050;2023-02-27T02:09:29;9.0;8.0;
52290;PMS5003;39663;45.432;28.050;2023-02-27T02:10:04;7.0;7.0;
52290;PMS5003;39663;45.432;28.050;2023-02-27T02:10:37;13.0;9.0;
52290;PMS5003;39663;45.432;28.050;2023-02-27T02:11:10;10.0;10.0;
52290;PMS5003;39663;45.432;28.050;2023-02-27T02:11:43;8.0;8.0;
52290;PMS5003;39663;45.432;28.050;2023-02-27T02:12:15;12.0;10.0;
52290;PMS5003;39663;45.432;28.050;2023-02-27T02:12:51;9.0;8.0;
52290;PMS5003;39663;45.432;28.050;2023-02-27T02:13:23;15.0;10.0;
52290;PMS5003;39663;45.432;28.050;2023-02-27T02:13:56;11.0;10.0;
52290;PMS5003;39663;45.432;28.050;2023-02-27T02:14:29;7.0;7.0;
52290;PMS5003;39663;45.432;28.050;2023-02-27T02:15:02;13.0;10.0;
52290;PMS5003;39663;45.432;28.050;2023-02-27T02:15:36;11.0;11.0;
52290;PMS5003;39663;45.432;28.050;2023-02-27T02:16:19;9.0;9.0;
52290;PMS5003;39663;45.432;28.050;2023-02-27T02:17:03;8.0;8.0;
52290;PMS5003;39663;45.432;28.050;2023-02-27T02:17:44;13.0;11.0;
52290;PMS5003;39663;45.432;28.050;2023-02-27T02:18:23;10.0;9.0;
52290;PMS5003;39663;45.432;28.050;2023-02-27T02:19:23;10.0;10.0;
52290;PMS5003;39663;45.432;28.050;2023-02-27T02:20:27;10.0;9.0;
52290;PMS5003;39663;45.432;28.050;2023-02-27T02:21:52;12.0;8.0;
52290;PMS5003;39663;45.432;28.050;2023-02-27T02:26:50;9.0;9.0;
52290;PMS5003;39663;45.432;28.050;2023-02-27T02:27:32;10.0;10.0;
52290;PMS5003;39663;45.432;28.050;2023-02-27T02:28:20;7.0;7.0;
52290;PMS5003;39663;45.432;28.050;2023-02-27T02:29:24;8.0;8.0;
52290;PMS5003;39663;45.432;28.050;2023-02-27T02:30:26;8.0;8.0;
52290;PMS5003;39663;45.432;28.050;2023-02-27T02:31:24;10.0;8.0;
52290;PMS5003;39663;45.432;28.050;2023-02-27T02:32:21;7.0;7.0;
52290;PMS5003;39663;45.432;28.050;2023-02-27T02:36:50;7.0;7.0;
52290;PMS5003;39663;45.432;28.050;2023-02-27T02:37:51;8.0;8.0;
52290;PMS5003;39663;45.432;28.050;2023-02-27T02:38:56;11.0;9.0;
52290;PMS5003;39663;45.432;28.050;2023-02-27T02:39:45;13.0;13.0;
52290;PMS5003;39663;45.432;28.050;2023-02-27T02:40:28;9.0;7.0;
52290;PMS5003;39663;45.432;28.050;2023-02-27T02:41:11;9.0;9.0;
52290;PMS5003;39663;45.432;28.050;2023-02-27T02:41:52;10.0;10.0;
52290;PMS5003;39663;45.432;28.050;2023-02-27T02:42:31;8.0;8.0;
52290;PMS5003;39663;45.432;28.050;2023-02-27T02:43:08;14.0;11.0;
52290;PMS5003;39663;45.432;28.050;2023-02-27T02:43:47;9.0;7.0;
52290;PMS5003;39663;45.432;28.050;2023-02-27T02:44:35;8.0;6.0;
52290;PMS5003;39663;45.432;28.050;2023-02-27T02:45:15;8.0;8.0;
52290;PMS5003;39663;45.432;28.050;2023-02-27T02:45:55;9.0;7.0;
52290;PMS5003;39663;45.432;28.050;2023-02-27T02:46:34;9.0;8.0;
52290;PMS5003;39663;45.432;28.050;2023-02-27T02:47:19;7.0;7.0;
52290;PMS5003;39663;45.432;28.050;2023-02-27T02:47:59;7.0;7.0;
52290;PMS5003;39663;45.432;28.050;2023-02-27T02:48:40;10.0;8.0;
52290;PMS5003;39663;45.432;28.050;2023-02-27T02:49:20;9.0;8.0;
52290;PMS5003;39663;45.432;28.050;2023-02-27T02:49:59;8.0;7.0;
52290;PMS5003;39663;45.432;28.050;2023-02-27T02:50:40;8.0;8.0;
52290;PMS5003;39663;45.432;28.050;2023-02-27T02:51:27;8.0;8.0;
52290;PMS5003;39663;45.432;28.050;2023-02-27T02:52:05;6.0;6.0;
52290;PMS5003;39663;45.432;28.050;2023-02-27T02:52:47;9.0;7.0;
52290;PMS5003;39663;45.432;28.050;2023-02-27T02:53:28;8.0;8.0;
52290;PMS5003;39663;45.432;28.050;2023-02-27T02:54:08;7.0;7.0;
52290;PMS5003;39663;45.432;28.050;2023-02-27T02:54:45;8.0;8.0;
52290;PMS5003;39663;45.432;28.050;2023-02-27T02:55:22;8.0;8.0;
52290;PMS5003;39663;45.432;28.050;2023-02-27T02:55:59;10.0;9.0;
52290;PMS5003;39663;45.432;28.050;2023-02-27T02:56:37;12.0;12.0;
52290;PMS5003;39663;45.432;28.050;2023-02-27T02:57:14;8.0;7.0;
52290;PMS5003;39663;45.432;28.050;2023-02-27T02:57:54;6.0;6.0;
52290;PMS5003;39663;45.432;28.050;2023-02-27T02:58:32;9.0;9.0;
52290;PMS5003;39663;45.432;28.050;2023-02-27T02:59:11;10.0;10.0;
52290;PMS5003;39663;45.432;28.050;2023-02-27T02:59:52;8.0;7.0;
52290;PMS5003;39663;45.432;28.050;2023-02-27T03:00:29;9.0;8.0;
52290;PMS5003;39663;45.432;28.050;2023-02-27T03:01:05;10.0;7.0;
52290;PMS5003;39663;45.432;28.050;2023-02-27T03:01:43;7.0;7.0;
52290;PMS5003;39663;45.432;28.050;2023-02-27T03:02:22;8.0;7.0;
52290;PMS5003;39663;45.432;28.050;2023-02-27T03:03:01;6.0;6.0;
52290;PMS5003;39663;45.432;28.050;2023-02-27T03:03:39;7.0;6.0;
52290;PMS5003;39663;45.432;28.050;2023-02-27T03:04:16;9.0;9.0;
52290;PMS5003;39663;45.432;28.050;2023-02-27T03:04:52;9.0;8.0;
52290;PMS5003;39663;45.432;28.050;2023-02-27T03:05:30;7.0;7.0;
52290;PMS5003;39663;45.432;28.050;2023-02-27T03:06:09;8.0;7.0;
52290;PMS5003;39663;45.432;28.050;2023-02-27T03:06:47;10.0;9.0;
52290;PMS5003;39663;45.432;28.050;2023-02-27T03:07:26;9.0;9.0;
52290;PMS5003;39663;45.432;28.050;2023-02-27T03:08:04;8.0;8.0;
52290;PMS5003;39663;45.432;28.050;2023-02-27T03:08:42;11.0;6.0;
52290;PMS5003;39663;45.432;28.050;2023-02-27T03:09:22;6.0;6.0;
52290;PMS5003;39663;45.432;28.050;2023-02-27T03:10:01;10.0;8.0;
52290;PMS5003;39663;45.432;28.050;2023-02-27T03:10:39;10.0;8.0;
52290;PMS5003;39663;45.432;28.050;2023-02-27T03:11:16;6.0;5.0;
52290;PMS5003;39663;45.432;28.050;2023-02-27T03:11:48;8.0;8.0;
52290;PMS5003;39663;45.432;28.050;2023-02-27T03:12:23;7.0;7.0;
52290;PMS5003;39663;45.432;28.050;2023-02-27T03:13:00;10.0;9.0;
52290;PMS5003;39663;45.432;28.050;2023-02-27T03:13:37;8.0;6.0;
52290;PMS5003;39663;45.432;28.050;2023-02-27T03:14:17;8.0;6.0;
52290;PMS5003;39663;45.432;28.050;2023-02-27T03:14:55;7.0;7.0;
52290;PMS5003;39663;45.432;28.050;2023-02-27T03:15:32;8.0;7.0;
52290;PMS5003;39663;45.432;28.050;2023-02-27T03:16:09;9.0;7.0;
52290;PMS5003;39663;45.432;28.050;2023-02-27T03:16:46;8.0;8.0;
52290;PMS5003;39663;45.432;28.050;2023-02-27T03:17:25;8.0;8.0;
52290;PMS5003;39663;45.432;28.050;2023-02-27T03:18:04;9.0;8.0;
52290;PMS5003;39663;45.432;28.050;2023-02-27T03:18:40;10.0;9.0;
52290;PMS5003;39663;45.432;28.050;2023-02-27T03:19:18;6.0;6.0;
52290;PMS5003;39663;45.432;28.050;2023-02-27T03:19:55;9.0;7.0;
52290;PMS5003;39663;45.432;28.050;2023-02-27T03:20:31;10.0;9.0;
52290;PMS5003;39663;45.432;28.050;2023-02-27T03:21:09;8.0;7.0;
52290;PMS5003;39663;45.432;28.050;2023-02-27T03:21:46;7.0;7.0;
52290;PMS5003;39663;45.432;28.050;2023-02-27T03:22:24;8.0;6.0;
52290;PMS5003;39663;45.432;28.050;2023-02-27T03:23:01;9.0;9.0;
52290;PMS5003;39663;45.432;28.050;2023-02-27T03:23:39;5.0;5.0;
52290;PMS5003;39663;45.432;28.050;2023-02-27T03:24:15;8.0;8.0;
52290;PMS5003;39663;45.432;28.050;2023-02-27T03:24:54;9.0;9.0;
52290;PMS5003;39663;45.432;28.050;2023-02-27T03:25:28;8.0;8.0;
52290;PMS5003;39663;45.432;28.050;2023-02-27T03:26:02;9.0;8.0;
52290;PMS5003;39663;45.432;28.050;2023-02-27T03:26:35;9.0;9.0;
52290;PMS5003;39663;45.432;28.050;2023-02-27T03:27:09;7.0;7.0;
52290;PMS5003;39663;45.432;28.050;2023-02-27T03:27:43;8.0;7.0;
52290;PMS5003;39663;45.432;28.050;2023-02-27T03:28:21;7.0;7.0;
52290;PMS5003;39663;45.432;28.050;2023-02-27T03:28:58;12.0;11.0;
52290;PMS5003;39663;45.432;28.050;2023-02-27T03:29:34;7.0;7.0;
52290;PMS5003;39663;45.432;28.050;2023-02-27T03:30:11;8.0;8.0;
52290;PMS5003;39663;45.432;28.050;2023-02-27T03:30:50;7.0;6.0;
52290;PMS5003;39663;45.432;28.050;2023-02-27T03:31:26;9.0;9.0;
52290;PMS5003;39663;45.432;28.050;2023-02-27T03:32:06;6.0;6.0;
52290;PMS5003;39663;45.432;28.050;2023-02-27T03:32:44;9.0;7.0;
52290;PMS5003;39663;45.432;28.050;2023-02-27T03:33:23;7.0;7.0;
52290;PMS5003;39663;45.432;28.050;2023-02-27T03:34:02;8.0;7.0;
52290;PMS5003;39663;45.432;28.050;2023-02-27T03:34:42;7.0;7.0;
52290;PMS5003;39663;45.432;28.050;2023-02-27T03:35:14;9.0;8.0;
52290;PMS5003;39663;45.432;28.050;2023-02-27T03:35:48;8.0;6.0;
52290;PMS5003;39663;45.432;28.050;2023-02-27T03:36:25;7.0;6.0;
52290;PMS5003;39663;45.432;28.050;2023-02-27T03:37:05;11.0;8.0;
52290;PMS5003;39663;45.432;28.050;2023-02-27T03:37:50;8.0;6.0;
52290;PMS5003;39663;45.432;28.050;2023-02-27T03:38:31;6.0;6.0;
52290;PMS5003;39663;45.432;28.050;2023-02-27T03:39:12;8.0;6.0;
52290;PMS5003;39663;45.432;28.050;2023-02-27T03:39:55;12.0;11.0;
52290;PMS5003;39663;45.432;28.050;2023-02-27T03:40:35;8.0;8.0;
52290;PMS5003;39663;45.432;28.050;2023-02-27T03:41:13;12.0;7.0;
52290;PMS5003;39663;45.432;28.050;2023-02-27T03:41:54;6.0;6.0;
52290;PMS5003;39663;45.432;28.050;2023-02-27T03:42:36;9.0;8.0;
52290;PMS5003;39663;45.432;28.050;2023-02-27T03:43:14;11.0;8.0;
52290;PMS5003;39663;45.432;28.050;2023-02-27T03:43:51;6.0;6.0;
52290;PMS5003;39663;45.432;28.050;2023-02-27T03:44:33;8.0;6.0;
52290;PMS5003;39663;45.432;28.050;2023-02-27T03:45:15;10.0;8.0;
52290;PMS5003;39663;45.432;28.050;2023-02-27T03:45:54;10.0;7.0;
52290;PMS5003;39663;45.432;28.050;2023-02-27T03:46:33;11.0;8.0;